Alfordsville, Indiana
Current Conditions -  °F | °C
As of 12:35 PM on Sunday 21 Dec 2014 (Local Time) from KDCY Reporting Station
Clear Clear  
Wind Chill:   Ceiling: Unl
Heat Index:   Visibility: 10mi
Dew Point: -3°   Wind: 5mph
Humidity: 67%   Direction: 110°ESE
Pressure: 30.19"   Gusts: NA
Location:  38.6074°N, 86.9234°W
Report Text: KDCY 211835Z AUTO 11004KT 10SM CLR 03/M02 A3019 RMK AO2 T00321025
Loading
Personal Weather Stations






























Interactive Weather Map New forecast layout! Learn more

10-Day Weather Forecast

Advertisements
Track Severe Weather on mobile